sensor_id;sensor_type;location;lat;lon;timestamp;pressure;altitude;pressure_sealevel;temperature;humidity
77537;BME280;67783;51.656;16.106;2024-03-25T00:01:44;100095.09;;;8.31;62.69
77537;BME280;67783;51.656;16.106;2024-03-25T00:04:46;100097.30;;;8.24;62.92
77537;BME280;67783;51.656;16.106;2024-03-25T00:07:48;100094.23;;;8.18;62.95
77537;BME280;67783;51.656;16.106;2024-03-25T00:10:54;100082.93;;;8.14;64.70
77537;BME280;67783;51.656;16.106;2024-03-25T00:13:56;100077.83;;;8.11;63.05
77537;BME280;67783;51.656;16.106;2024-03-25T00:16:58;100083.36;;;8.08;64.17
77537;BME280;67783;51.656;16.106;2024-03-25T00:19:59;100078.02;;;8.08;63.21
77537;BME280;67783;51.656;16.106;2024-03-25T00:23:01;100071.01;;;8.07;63.73
77537;BME280;67783;51.656;16.106;2024-03-25T00:26:03;100072.68;;;8.08;63.23
77537;BME280;67783;51.656;16.106;2024-03-25T00:29:04;100065.43;;;8.10;63.61
77537;BME280;67783;51.656;16.106;2024-03-25T00:32:09;100067.15;;;8.11;64.73
77537;BME280;67783;51.656;16.106;2024-03-25T00:35:11;100063.49;;;8.12;63.58
77537;BME280;67783;51.656;16.106;2024-03-25T00:38:13;100053.04;;;8.09;64.51
77537;BME280;67783;51.656;16.106;2024-03-25T00:41:14;100063.49;;;8.12;63.65
77537;BME280;67783;51.656;16.106;2024-03-25T00:44:16;100060.09;;;8.10;64.19
77537;BME280;67783;51.656;16.106;2024-03-25T00:47:17;100052.09;;;8.10;63.74
77537;BME280;67783;51.656;16.106;2024-03-25T00:50:19;100053.14;;;8.08;64.20
77537;BME280;67783;51.656;16.106;2024-03-25T00:53:24;100055.81;;;8.08;65.32
77537;BME280;67783;51.656;16.106;2024-03-25T00:56:25;100051.47;;;8.07;64.15
77537;BME280;67783;51.656;16.106;2024-03-25T00:59:27;100055.18;;;8.04;65.20
77537;BME280;67783;51.656;16.106;2024-03-25T01:02:28;100057.76;;;8.06;64.23
77537;BME280;67783;51.656;16.106;2024-03-25T01:05:29;100048.03;;;8.05;64.81
77537;BME280;67783;51.656;16.106;2024-03-25T01:08:31;100046.98;;;8.07;64.41
77537;BME280;67783;51.656;16.106;2024-03-25T01:11:32;100048.03;;;8.05;64.86
77537;BME280;67783;51.656;16.106;2024-03-25T01:14:38;100040.98;;;8.04;67.05
77537;BME280;67783;51.656;16.106;2024-03-25T01:17:40;100036.50;;;8.04;64.81
77537;BME280;67783;51.656;16.106;2024-03-25T01:20:41;100029.48;;;8.03;65.93
77537;BME280;67783;51.656;16.106;2024-03-25T01:23:42;100039.08;;;8.06;64.88
77537;BME280;67783;51.656;16.106;2024-03-25T01:26:44;100032.16;;;8.03;65.38
77537;BME280;67783;51.656;16.106;2024-03-25T01:29:45;100036.63;;;8.03;65.26
77537;BME280;67783;51.656;16.106;2024-03-25T01:32:47;100032.16;;;8.03;65.53
77537;BME280;67783;51.656;16.106;2024-03-25T01:39:07;100025.73;;;8.06;65.26
77537;BME280;67783;51.656;16.106;2024-03-25T01:42:10;100040.88;;;8.05;65.84
77537;BME280;67783;51.656;16.106;2024-03-25T01:45:20;100030.20;;;8.05;67.23
77537;BME280;67783;51.656;16.106;2024-03-25T01:48:21;100035.55;;;8.05;65.67
77537;BME280;67783;51.656;16.106;2024-03-25T01:51:22;100030.20;;;8.05;66.61
77537;BME280;67783;51.656;16.106;2024-03-25T01:54:25;100038.11;;;8.07;65.68
77537;BME280;67783;51.656;16.106;2024-03-25T01:57:28;100029.25;;;8.06;66.31
77537;BME280;67783;51.656;16.106;2024-03-25T02:00:29;100035.11;;;8.11;65.73
77537;BME280;67783;51.656;16.106;2024-03-25T02:03:31;100028.78;;;8.12;66.21
77537;BME280;67783;51.656;16.106;2024-03-25T02:06:37;100031.45;;;8.12;67.86
77537;BME280;67783;51.656;16.106;2024-03-25T02:09:40;100030.59;;;8.12;66.15
77537;BME280;67783;51.656;16.106;2024-03-25T02:12:43;100027.11;;;8.11;66.78
77537;BME280;67783;51.656;16.106;2024-03-25T02:15:44;100027.83;;;8.13;66.33
77537;BME280;67783;51.656;16.106;2024-03-25T02:18:46;100032.44;;;8.11;66.55
77537;BME280;67783;51.656;16.106;2024-03-25T02:21:56;100032.44;;;8.11;68.57
77537;BME280;67783;51.656;16.106;2024-03-25T02:24:58;100031.45;;;8.12;66.45
77537;BME280;67783;51.656;16.106;2024-03-25T02:28:00;100035.11;;;8.11;67.34
77537;BME280;67783;51.656;16.106;2024-03-25T02:31:02;100037.66;;;8.13;66.53
77537;BME280;67783;51.656;16.106;2024-03-25T02:34:03;100028.78;;;8.12;67.04
77537;BME280;67783;51.656;16.106;2024-03-25T02:37:05;100031.26;;;8.15;66.57
77537;BME280;67783;51.656;16.106;2024-03-25T02:40:08;100033.16;;;8.13;66.79
77537;BME280;67783;51.656;16.106;2024-03-25T02:43:11;100035.11;;;8.11;69.05
77537;BME280;67783;51.656;16.106;2024-03-25T02:46:13;100038.51;;;8.13;66.73
77537;BME280;67783;51.656;16.106;2024-03-25T02:49:14;100043.32;;;8.08;67.77
77537;BME280;67783;51.656;16.106;2024-03-25T02:52:16;100038.97;;;8.07;66.68
77537;BME280;67783;51.656;16.106;2024-03-25T02:55:17;100037.36;;;8.05;67.15
77537;BME280;67783;51.656;16.106;2024-03-25T02:58:18;100043.55;;;8.05;66.56
77537;BME280;67783;51.656;16.106;2024-03-25T03:01:20;100042.84;;;8.03;67.03
77537;BME280;67783;51.656;16.106;2024-03-25T03:04:26;100050.94;;;8.02;68.16
77537;BME280;67783;51.656;16.106;2024-03-25T03:07:28;100048.99;;;8.04;66.78
77537;BME280;67783;51.656;16.106;2024-03-25T03:10:29;100040.35;;;8.00;67.20
77537;BME280;67783;51.656;16.106;2024-03-25T03:13:31;100053.27;;;8.06;66.82
77537;BME280;67783;51.656;16.106;2024-03-25T03:16:32;100053.27;;;8.06;67.30
77537;BME280;67783;51.656;16.106;2024-03-25T03:19:33;100056.57;;;8.10;66.96
77537;BME280;67783;51.656;16.106;2024-03-25T03:22:35;100057.52;;;8.09;67.30
77537;BME280;67783;51.656;16.106;2024-03-25T03:25:41;100059.34;;;8.08;68.91
77537;BME280;67783;51.656;16.106;2024-03-25T03:28:43;100060.95;;;8.11;67.13
77537;BME280;67783;51.656;16.106;2024-03-25T03:31:45;100061.91;;;8.10;67.95
77537;BME280;67783;51.656;16.106;2024-03-25T03:34:46;100064.48;;;8.11;67.34
77537;BME280;67783;51.656;16.106;2024-03-25T03:37:48;100064.34;;;8.13;67.76
77537;BME280;67783;51.656;16.106;2024-03-25T03:40:56;100079.17;;;8.17;67.23
77537;BME280;67783;51.656;16.106;2024-03-25T03:43:57;100072.12;;;8.16;67.34
77537;BME280;67783;51.656;16.106;2024-03-25T03:47:02;100076.74;;;8.14;68.83
77537;BME280;67783;51.656;16.106;2024-03-25T03:50:04;100073.11;;;8.15;67.31
77537;BME280;67783;51.656;16.106;2024-03-25T03:53:06;100080.03;;;8.17;67.70
77537;BME280;67783;51.656;16.106;2024-03-25T03:56:08;100083.33;;;8.21;67.02
77537;BME280;67783;51.656;16.106;2024-03-25T03:59:10;100087.81;;;8.20;67.12
77537;BME280;67783;51.656;16.106;2024-03-25T04:02:12;100087.71;;;8.22;66.72
77537;BME280;67783;51.656;16.106;2024-03-25T04:05:14;100093.28;;;8.19;66.93
77537;BME280;67783;51.656;16.106;2024-03-25T04:08:19;100108.55;;;8.17;67.71
77537;BME280;67783;51.656;16.106;2024-03-25T04:11:20;100098.00;;;8.15;66.69
77537;BME280;67783;51.656;16.106;2024-03-25T04:14:21;100099.27;;;8.10;67.13
77537;BME280;67783;51.656;16.106;2024-03-25T04:17:23;100108.15;;;8.10;66.62
77537;BME280;67783;51.656;16.106;2024-03-25T04:20:25;100113.49;;;8.10;66.90
77537;BME280;67783;51.656;16.106;2024-03-25T04:23:27;100114.22;;;8.12;66.56
77537;BME280;67783;51.656;16.106;2024-03-25T04:26:29;100109.63;;;8.14;66.74
77537;BME280;67783;51.656;16.106;2024-03-25T04:29:34;100119.45;;;8.14;67.42
77537;BME280;67783;51.656;16.106;2024-03-25T04:32:35;100123.92;;;8.13;66.71
77537;BME280;67783;51.656;16.106;2024-03-25T04:35:37;100117.64;;;8.14;67.41
77537;BME280;67783;51.656;16.106;2024-03-25T04:38:38;100128.20;;;8.16;66.80
77537;BME280;67783;51.656;16.106;2024-03-25T04:41:40;100132.70;;;8.15;67.12
77537;BME280;67783;51.656;16.106;2024-03-25T04:44:41;100129.80;;;8.18;66.78
77537;BME280;67783;51.656;16.106;2024-03-25T04:47:43;100133.42;;;8.17;66.85
77537;BME280;67783;51.656;16.106;2024-03-25T04:50:48;100141.45;;;8.17;67.79
77537;BME280;67783;51.656;16.106;2024-03-25T04:53:50;100138.77;;;8.17;66.65
77537;BME280;67783;51.656;16.106;2024-03-25T04:56:51;100146.05;;;8.15;66.87
77537;BME280;67783;51.656;16.106;2024-03-25T04:59:52;100157.69;;;8.14;66.76
77537;BME280;67783;51.656;16.106;2024-03-25T05:02:54;100157.69;;;8.14;66.98
77537;BME280;67783;51.656;16.106;2024-03-25T05:05:56;100161.09;;;8.16;66.62
77537;BME280;67783;51.656;16.106;2024-03-25T05:08:58;100166.42;;;8.16;66.84
77537;BME280;67783;51.656;16.106;2024-03-25T05:12:04;100172.52;;;8.18;67.60
77537;BME280;67783;51.656;16.106;2024-03-25T05:15:05;100176.91;;;8.19;66.66
77537;BME280;67783;51.656;16.106;2024-03-25T05:18:07;100173.38;;;8.19;67.02
77537;BME280;67783;51.656;16.106;2024-03-25T05:21:08;100183.73;;;8.23;66.62
77537;BME280;67783;51.656;16.106;2024-03-25T05:24:11;100183.73;;;8.23;66.82
77537;BME280;67783;51.656;16.106;2024-03-25T05:27:12;100193.66;;;8.21;66.77
77537;BME280;67783;51.656;16.106;2024-03-25T05:30:14;100194.41;;;8.23;66.62
77537;BME280;67783;51.656;16.106;2024-03-25T05:33:18;100196.10;;;8.24;67.00
77537;BME280;67783;51.656;16.106;2024-03-25T05:36:20;100197.81;;;8.25;66.29
77537;BME280;67783;51.656;16.106;2024-03-25T05:39:21;100199.52;;;8.26;66.51
77537;BME280;67783;51.656;16.106;2024-03-25T05:42:23;100202.10;;;8.28;66.19
77537;BME280;67783;51.656;16.106;2024-03-25T05:45:24;100209.45;;;8.24;66.57
77537;BME280;67783;51.656;16.106;2024-03-25T05:48:26;100210.87;;;8.30;66.29
77537;BME280;67783;51.656;16.106;2024-03-25T05:51:27;100211.83;;;8.29;66.53
77537;BME280;67783;51.656;16.106;2024-03-25T05:54:33;100225.95;;;8.31;67.46
77537;BME280;67783;51.656;16.106;2024-03-25T05:57:34;100232.86;;;8.33;66.76
77537;BME280;67783;51.656;16.106;2024-03-25T06:00:36;100229.88;;;8.38;67.07
77537;BME280;67783;51.656;16.106;2024-03-25T06:03:37;100237.79;;;8.40;66.65
77537;BME280;67783;51.656;16.106;2024-03-25T06:06:39;100246.75;;;8.39;67.00
77537;BME280;67783;51.656;16.106;2024-03-25T06:09:40;100253.36;;;8.46;66.54
77537;BME280;67783;51.656;16.106;2024-03-25T06:12:42;100254.34;;;8.45;66.93
77537;BME280;67783;51.656;16.106;2024-03-25T06:15:48;100260.18;;;8.50;67.40
77537;BME280;67783;51.656;16.106;2024-03-25T06:18:49;100267.02;;;8.54;66.63
77537;BME280;67783;51.656;16.106;2024-03-25T06:21:52;100271.32;;;8.56;66.89
77537;BME280;67783;51.656;16.106;2024-03-25T06:24:53;100272.67;;;8.62;66.44
77537;BME280;67783;51.656;16.106;2024-03-25T06:27:55;100270.98;;;8.61;66.62
77537;BME280;67783;51.656;16.106;2024-03-25T06:30:56;100287.52;;;8.66;66.36
77537;BME280;67783;51.656;16.106;2024-03-25T06:34:10;100283.66;;;8.70;66.45
77537;BME280;67783;51.656;16.106;2024-03-25T06:37:22;100294.78;;;8.76;66.75
77537;BME280;67783;51.656;16.106;2024-03-25T06:40:24;100293.46;;;8.82;66.25
77537;BME280;67783;51.656;16.106;2024-03-25T06:43:26;100296.90;;;8.84;66.29
77537;BME280;67783;51.656;16.106;2024-03-25T06:46:27;100303.73;;;8.88;66.17
77537;BME280;67783;51.656;16.106;2024-03-25T06:49:43;100313.70;;;8.86;66.15
77537;BME280;67783;51.656;16.106;2024-03-25T06:52:56;100319.55;;;8.91;66.04
77537;BME280;67783;51.656;16.106;2024-03-25T06:56:08;100322.98;;;8.93;65.96
77537;BME280;67783;51.656;16.106;2024-03-25T06:59:09;100318.25;;;8.97;65.73
77537;BME280;67783;51.656;16.106;2024-03-25T07:02:11;100326.37;;;8.95;65.89
77537;BME280;67783;51.656;16.106;2024-03-25T07:05:12;100333.01;;;9.02;65.74
77537;BME280;67783;51.656;16.106;2024-03-25T07:08:15;100336.41;;;9.04;65.84
77537;BME280;67783;51.656;16.106;2024-03-25T07:11:16;100334.50;;;9.06;65.60
77537;BME280;67783;51.656;16.106;2024-03-25T07:14:18;100352.68;;;9.01;65.55
77537;BME280;67783;51.656;16.106;2024-03-25T07:17:23;100345.85;;;8.97;65.35
77537;BME280;67783;51.656;16.106;2024-03-25T07:20:26;100351.63;;;8.91;65.19
77537;BME280;67783;51.656;16.106;2024-03-25T07:23:28;100357.84;;;8.79;65.01
77537;BME280;67783;51.656;16.106;2024-03-25T07:26:29;100361.37;;;8.79;65.18
77537;BME280;67783;51.656;16.106;2024-03-25T07:29:31;100337.79;;;8.61;65.41
77537;BME280;67783;51.656;16.106;2024-03-25T07:32:35;100373.56;;;8.84;65.38
77537;BME280;67783;51.656;16.106;2024-03-25T07:35:37;100379.66;;;8.86;65.64
77537;BME280;67783;51.656;16.106;2024-03-25T07:38:42;100377.49;;;8.91;66.35
77537;BME280;67783;51.656;16.106;2024-03-25T07:41:43;100378.56;;;9.01;65.65
77537;BME280;67783;51.656;16.106;2024-03-25T07:44:45;100387.28;;;9.15;66.00
77537;BME280;67783;51.656;16.106;2024-03-25T07:47:46;100387.68;;;9.35;65.54
77537;BME280;67783;51.656;16.106;2024-03-25T07:50:47;100391.91;;;9.50;65.67
77537;BME280;67783;51.656;16.106;2024-03-25T07:53:49;100402.46;;;9.64;65.24
77537;BME280;67783;51.656;16.106;2024-03-25T07:56:50;100399.74;;;9.77;65.26
77537;BME280;67783;51.656;16.106;2024-03-25T07:59:56;100405.58;;;9.82;64.83
77537;BME280;67783;51.656;16.106;2024-03-25T08:02:58;100416.58;;;9.90;64.78
77537;BME280;67783;51.656;16.106;2024-03-25T08:05:59;100419.38;;;9.88;64.61
77537;BME280;67783;51.656;16.106;2024-03-25T08:09:01;100415.50;;;9.92;64.53
77537;BME280;67783;51.656;16.106;2024-03-25T08:12:06;100417.66;;;9.87;64.49
77537;BME280;67783;51.656;16.106;2024-03-25T08:15:17;100428.61;;;9.84;64.07
77537;BME280;67783;51.656;16.106;2024-03-25T08:18:18;100428.71;;;9.83;64.41
77537;BME280;67783;51.656;16.106;2024-03-25T08:21:20;100437.83;;;9.80;64.47
77537;BME280;67783;51.656;16.106;2024-03-25T08:24:21;100444.78;;;9.83;64.40
77537;BME280;67783;51.656;16.106;2024-03-25T08:27:22;100437.07;;;9.78;64.51
77537;BME280;67783;51.656;16.106;2024-03-25T08:30:24;100444.91;;;9.81;64.43
77537;BME280;67783;51.656;16.106;2024-03-25T08:33:25;100451.23;;;9.80;64.55
77537;BME280;67783;51.656;16.106;2024-03-25T08:36:32;100448.31;;;9.83;64.56
77537;BME280;67783;51.656;16.106;2024-03-25T08:39:33;100456.86;;;9.88;64.61
77537;BME280;67783;51.656;16.106;2024-03-25T08:42:34;100451.04;;;9.94;64.66
77537;BME280;67783;51.656;16.106;2024-03-25T08:45:36;100457.66;;;10.01;64.45
77537;BME280;67783;51.656;16.106;2024-03-25T08:48:37;100459.36;;;10.02;64.53
77537;BME280;67783;51.656;16.106;2024-03-25T08:51:39;100463.41;;;10.08;64.32
77537;BME280;67783;51.656;16.106;2024-03-25T08:54:40;100465.75;;;10.12;64.38
77537;BME280;67783;51.656;16.106;2024-03-25T08:57:46;100473.48;;;10.17;64.29
77537;BME280;67783;51.656;16.106;2024-03-25T09:00:48;100472.39;;;10.19;64.22
77537;BME280;67783;51.656;16.106;2024-03-25T09:03:49;100480.76;;;10.15;64.27
77537;BME280;67783;51.656;16.106;2024-03-25T09:06:50;100490.61;;;10.14;64.17
77537;BME280;67783;51.656;16.106;2024-03-25T09:09:52;100477.42;;;10.11;64.24
77537;BME280;67783;51.656;16.106;2024-03-25T09:13:07;100487.41;;;10.09;64.71
77537;BME280;67783;51.656;16.106;2024-03-25T09:16:09;100494.46;;;10.10;64.38
77537;BME280;67783;51.656;16.106;2024-03-25T09:19:10;100484.84;;;10.08;64.32
77537;BME280;67783;51.656;16.106;2024-03-25T09:22:12;100487.41;;;10.09;64.10
77537;BME280;67783;51.656;16.106;2024-03-25T09:25:13;100493.50;;;10.11;64.11
77537;BME280;67783;51.656;16.106;2024-03-25T09:28:14;100491.48;;;10.15;63.93
77537;BME280;67783;51.656;16.106;2024-03-25T09:31:16;100499.61;;;10.13;64.08
77537;BME280;67783;51.656;16.106;2024-03-25T09:34:22;100507.13;;;10.08;63.70
77537;BME280;67783;51.656;16.106;2024-03-25T09:37:23;100510.76;;;10.07;63.73
77537;BME280;67783;51.656;16.106;2024-03-25T09:40:25;100505.88;;;10.01;63.86
77537;BME280;67783;51.656;16.106;2024-03-25T09:43:33;100507.55;;;10.02;63.85
77537;BME280;67783;51.656;16.106;2024-03-25T09:46:38;100512.82;;;10.04;64.09
77537;BME280;67783;51.656;16.106;2024-03-25T09:49:43;100526.11;;;10.05;63.91
77537;BME280;67783;51.656;16.106;2024-03-25T09:52:50;100530.47;;;10.06;64.03
77537;BME280;67783;51.656;16.106;2024-03-25T09:55:51;100525.97;;;10.07;64.20
77537;BME280;67783;51.656;16.106;2024-03-25T09:58:53;100538.63;;;10.17;64.08
77537;BME280;67783;51.656;16.106;2024-03-25T10:01:54;100538.16;;;10.24;64.32
77537;BME280;67783;51.656;16.106;2024-03-25T10:05:04;100538.16;;;10.24;65.04
77537;BME280;67783;51.656;16.106;2024-03-25T10:08:06;100536.86;;;10.29;64.50
77537;BME280;67783;51.656;16.106;2024-03-25T10:11:07;100544.27;;;10.26;64.69
77537;BME280;67783;51.656;16.106;2024-03-25T10:14:09;100546.71;;;10.29;64.32
77537;BME280;67783;51.656;16.106;2024-03-25T10:17:11;100545.00;;;10.28;64.67
77537;BME280;67783;51.656;16.106;2024-03-25T10:20:16;100549.39;;;10.29;64.44
77537;BME280;67783;51.656;16.106;2024-03-25T10:23:22;100545.24;;;10.25;64.51
77537;BME280;67783;51.656;16.106;2024-03-25T10:26:30;100547.67;;;10.28;64.59
77537;BME280;67783;51.656;16.106;2024-03-25T10:29:39;100560.16;;;10.40;63.98
77537;BME280;67783;51.656;16.106;2024-03-25T10:32:40;100558.96;;;10.44;64.22
77537;BME280;67783;51.656;16.106;2024-03-25T10:35:50;100563.13;;;10.48;64.23
77537;BME280;67783;51.656;16.106;2024-03-25T10:38:57;100555.59;;;10.53;64.09
77537;BME280;67783;51.656;16.106;2024-03-25T10:42:05;100569.23;;;10.50;64.05
77537;BME280;67783;51.656;16.106;2024-03-25T10:45:15;100574.55;;;10.39;64.22
77537;BME280;67783;51.656;16.106;2024-03-25T10:48:26;100579.28;;;10.35;64.12
77537;BME280;67783;51.656;16.106;2024-03-25T10:51:29;100577.77;;;10.31;64.27
77537;BME280;67783;51.656;16.106;2024-03-25T10:54:45;100583.99;;;10.32;64.07
77537;BME280;67783;51.656;16.106;2024-03-25T10:57:48;100589.88;;;10.37;63.95
77537;BME280;67783;51.656;16.106;2024-03-25T11:00:52;100586.76;;;10.43;63.94
77537;BME280;67783;51.656;16.106;2024-03-25T11:03:57;100586.56;;;10.57;63.77
77537;BME280;67783;51.656;16.106;2024-03-25T11:10:13;100587.81;;;10.88;63.05
77537;BME280;67783;51.656;16.106;2024-03-25T11:13:17;100586.12;;;10.98;62.82
77537;BME280;67783;51.656;16.106;2024-03-25T11:16:31;100584.29;;;10.98;62.79
77537;BME280;67783;51.656;16.106;2024-03-25T11:19:32;100589.80;;;10.97;62.45
77537;BME280;67783;51.656;16.106;2024-03-25T11:22:34;100587.14;;;11.08;62.73
77537;BME280;67783;51.656;16.106;2024-03-25T11:25:36;100588.42;;;11.26;62.06
77537;BME280;67783;51.656;16.106;2024-03-25T11:28:37;100592.73;;;11.51;61.96
77537;BME280;67783;51.656;16.106;2024-03-25T11:31:39;100584.84;;;11.72;61.24
77537;BME280;67783;51.656;16.106;2024-03-25T11:34:51;100584.47;;;11.87;59.60
77537;BME280;67783;51.656;16.106;2024-03-25T11:37:53;100582.99;;;11.94;60.74
77537;BME280;67783;51.656;16.106;2024-03-25T11:40:54;100590.58;;;12.00;60.14
77537;BME280;67783;51.656;16.106;2024-03-25T11:43:56;100587.34;;;12.18;60.39
77537;BME280;67783;51.656;16.106;2024-03-25T11:46:57;100587.09;;;12.32;59.44
77537;BME280;67783;51.656;16.106;2024-03-25T11:49:59;100597.10;;;12.41;59.85
77537;BME280;67783;51.656;16.106;2024-03-25T11:53:04;100596.12;;;12.42;59.52
77537;BME280;67783;51.656;16.106;2024-03-25T11:56:06;100596.01;;;12.32;56.76
77537;BME280;67783;51.656;16.106;2024-03-25T11:59:07;100594.55;;;12.28;59.05
77537;BME280;67783;51.656;16.106;2024-03-25T12:02:09;100592.23;;;12.24;58.70
77537;BME280;67783;51.656;16.106;2024-03-25T12:05:11;100593.95;;;12.14;59.25
77537;BME280;67783;51.656;16.106;2024-03-25T12:08:13;100596.16;;;11.97;59.19
77537;BME280;67783;51.656;16.106;2024-03-25T12:11:15;100599.98;;;11.95;59.83
77537;BME280;67783;51.656;16.106;2024-03-25T12:14:19;100594.96;;;11.90;59.78
77537;BME280;67783;51.656;16.106;2024-03-25T12:17:24;100597.65;;;11.79;59.83
77537;BME280;67783;51.656;16.106;2024-03-25T12:20:26;100596.05;;;11.77;60.53
77537;BME280;67783;51.656;16.106;2024-03-25T12:23:32;100596.41;;;11.72;60.94
77537;BME280;67783;51.656;16.106;2024-03-25T12:26:34;100598.88;;;11.75;61.16
77537;BME280;67783;51.656;16.106;2024-03-25T12:29:36;100594.70;;;11.71;61.23
77537;BME280;67783;51.656;16.106;2024-03-25T12:32:45;100588.60;;;11.80;61.43
77537;BME280;67783;51.656;16.106;2024-03-25T12:35:48;100598.99;;;11.96;61.32
77537;BME280;67783;51.656;16.106;2024-03-25T12:38:57;100588.34;;;12.06;61.41
77537;BME280;67783;51.656;16.106;2024-03-25T12:41:58;100586.90;;;12.13;61.18
77537;BME280;67783;51.656;16.106;2024-03-25T12:45:06;100597.75;;;12.11;60.89
77537;BME280;67783;51.656;16.106;2024-03-25T12:48:10;100592.02;;;12.16;60.60
77537;BME280;67783;51.656;16.106;2024-03-25T12:51:15;100600.30;;;12.24;60.78
77537;BME280;67783;51.656;16.106;2024-03-25T12:54:17;100590.52;;;12.23;59.93
77537;BME280;67783;51.656;16.106;2024-03-25T12:57:18;100592.35;;;12.33;60.21
77537;BME280;67783;51.656;16.106;2024-03-25T13:00:21;100589.41;;;12.36;59.88
77537;BME280;67783;51.656;16.106;2024-03-25T13:03:30;100598.59;;;12.34;58.81
77537;BME280;67783;51.656;16.106;2024-03-25T13:06:31;100599.32;;;12.25;59.96
77537;BME280;67783;51.656;16.106;2024-03-25T13:09:33;100607.90;;;12.08;59.53
77537;BME280;67783;51.656;16.106;2024-03-25T13:12:34;100614.01;;;11.98;60.31
77537;BME280;67783;51.656;16.106;2024-03-25T13:15:36;100618.40;;;11.77;60.56
77537;BME280;67783;51.656;16.106;2024-03-25T13:18:37;100611.28;;;11.65;60.55
77537;BME280;67783;51.656;16.106;2024-03-25T13:21:38;100597.10;;;11.41;60.43
77537;BME280;67783;51.656;16.106;2024-03-25T13:24:45;100603.17;;;11.32;59.95
77537;BME280;67783;51.656;16.106;2024-03-25T13:27:46;100609.64;;;11.29;60.92
77537;BME280;67783;51.656;16.106;2024-03-25T13:30:47;100603.16;;;11.21;61.57
77537;BME280;67783;51.656;16.106;2024-03-25T13:33:49;100609.02;;;11.26;61.37
77537;BME280;67783;51.656;16.106;2024-03-25T13:36:51;100603.17;;;11.32;61.62
77537;BME280;67783;51.656;16.106;2024-03-25T13:39:52;100606.15;;;11.51;61.61
77537;BME280;67783;51.656;16.106;2024-03-25T13:42:54;100611.52;;;11.62;61.32
77537;BME280;67783;51.656;16.106;2024-03-25T13:45:59;100620.69;;;11.71;61.73
77537;BME280;67783;51.656;16.106;2024-03-25T13:49:01;100623.05;;;11.75;61.42
77537;BME280;67783;51.656;16.106;2024-03-25T13:52:03;100622.52;;;11.70;61.00
77537;BME280;67783;51.656;16.106;2024-03-25T13:55:05;100629.35;;;11.63;60.97
77537;BME280;67783;51.656;16.106;2024-03-25T13:58:07;100628.35;;;11.53;61.19
77537;BME280;67783;51.656;16.106;2024-03-25T14:01:20;100641.41;;;11.46;61.15
77537;BME280;67783;51.656;16.106;2024-03-25T14:04:21;100642.84;;;11.39;61.27
77537;BME280;67783;51.656;16.106;2024-03-25T14:07:23;100642.30;;;11.23;61.42
77537;BME280;67783;51.656;16.106;2024-03-25T14:10:24;100639.34;;;11.15;61.29
77537;BME280;67783;51.656;16.106;2024-03-25T14:13:26;100649.09;;;11.05;61.34
77537;BME280;67783;51.656;16.106;2024-03-25T14:16:30;100639.94;;;11.07;61.17
77537;BME280;67783;51.656;16.106;2024-03-25T14:19:45;100635.88;;;11.37;60.90
77537;BME280;67783;51.656;16.106;2024-03-25T14:22:46;100638.11;;;11.08;60.47
77537;BME280;67783;51.656;16.106;2024-03-25T14:25:48;100654.20;;;11.08;60.82
77537;BME280;67783;51.656;16.106;2024-03-25T14:28:49;100659.75;;;10.94;61.00
77537;BME280;67783;51.656;16.106;2024-03-25T14:31:51;100677.33;;;10.74;61.23
77537;BME280;67783;51.656;16.106;2024-03-25T14:34:53;100684.49;;;10.50;61.97
77537;BME280;67783;51.656;16.106;2024-03-25T14:37:59;100702.12;;;10.29;63.73
77537;BME280;67783;51.656;16.106;2024-03-25T14:41:02;100690.35;;;10.18;62.90
77537;BME280;67783;51.656;16.106;2024-03-25T14:44:03;100693.12;;;10.04;63.40
77537;BME280;67783;51.656;16.106;2024-03-25T14:47:05;100699.56;;;10.02;62.99
77537;BME280;67783;51.656;16.106;2024-03-25T14:50:07;100691.84;;;9.97;63.36
77537;BME280;67783;51.656;16.106;2024-03-25T14:53:08;100691.62;;;10.00;63.22
77537;BME280;67783;51.656;16.106;2024-03-25T14:56:10;100694.07;;;10.03;63.53
77537;BME280;67783;51.656;16.106;2024-03-25T14:59:15;100698.59;;;10.15;65.18
77537;BME280;67783;51.656;16.106;2024-03-25T15:02:16;100703.70;;;10.31;63.63
77537;BME280;67783;51.656;16.106;2024-03-25T15:05:18;100694.80;;;10.43;64.32
77537;BME280;67783;51.656;16.106;2024-03-25T15:08:21;100696.13;;;10.61;63.60
77537;BME280;67783;51.656;16.106;2024-03-25T15:11:22;100687.99;;;10.63;63.63
77537;BME280;67783;51.656;16.106;2024-03-25T15:14:28;100692.89;;;10.69;63.22
77537;BME280;67783;51.656;16.106;2024-03-25T15:17:32;100686.46;;;10.72;63.24
77537;BME280;67783;51.656;16.106;2024-03-25T15:20:36;100686.33;;;10.73;63.44
77537;BME280;67783;51.656;16.106;2024-03-25T15:23:38;100688.24;;;10.84;63.00
77537;BME280;67783;51.656;16.106;2024-03-25T15:26:40;100689.72;;;10.88;63.09
77537;BME280;67783;51.656;16.106;2024-03-25T15:29:42;100693.54;;;10.96;62.89
77537;BME280;67783;51.656;16.106;2024-03-25T15:32:45;100686.02;;;11.01;62.91
77537;BME280;67783;51.656;16.106;2024-03-25T15:35:46;100690.91;;;11.07;62.82
77537;BME280;67783;51.656;16.106;2024-03-25T15:38:47;100698.09;;;11.07;63.01
77537;BME280;67783;51.656;16.106;2024-03-25T15:41:52;100699.05;;;11.06;63.50
77537;BME280;67783;51.656;16.106;2024-03-25T15:44:54;100703.46;;;11.07;62.93
77537;BME280;67783;51.656;16.106;2024-03-25T15:48:02;100705.52;;;11.03;62.82
77537;BME280;67783;51.656;16.106;2024-03-25T15:51:06;100713.57;;;11.03;62.66
77537;BME280;67783;51.656;16.106;2024-03-25T15:54:07;100712.77;;;10.90;62.73
77537;BME280;67783;51.656;16.106;2024-03-25T15:57:13;100712.47;;;10.82;62.39